Pedernales — WDG6856 — position and weather

sailwx.info

Track history (hours):
 
Tides and Currents Weather Stations Pressure Air Temp Water Temp Dewpoint Dewpoint Depression Visibility Wind Speed Wind Dir Waves Ship Positions

Pedernales

Owner: Higman Barge Lines, Inc., Orange, TX. More information available from US FCC via Universal Licensing System and Coast Guard Vessel Documentation Center.

Last reported at 2018-Feb-17 17:22 UTC. Time now 2018-Feb-22 09:31 UTC.
Position N 27°49' W 097°29'.

Length 24 m; draft 3 m.

Type: Towing. MMSI: 367561410.

Date/timePositionNaut miles runAvg speedWind from/ knotsBaromVisibWave heightAir tempDewpointWater temp
2018-Feb-17 17:22N 27°49' W 097°29'0 0.0
2018-Feb-17 16:47N 27°49' W 097°29'0 0.0
2018-Feb-17 16:22N 27°49' W 097°29'1 1.1
2018-Feb-17 15:52N 27°49' W 097°28'2 2.1
2018-Feb-17 15:05N 27°49' W 097°26'1 7.4
2018-Feb-17 15:00N 27°49' W 097°27'2 3.1
2018-Feb-17 14:29N 27°49' W 097°29'0 0.0
2018-Feb-17 13:56N 27°49' W 097°29'0 0.0
2018-Feb-17 12:52N 27°49' W 097°29'0 0.0
2018-Feb-17 12:24N 27°49' W 097°29'0 0.0
2018-Feb-17 11:59N 27°49' W 097°29'0 0.0
2018-Feb-17 11:30N 27°49' W 097°29'1 0.1
2018-Feb-17 04:07N 27°49' W 097°29'0 0.0
2018-Feb-17 03:58N 27°49' W 097°29'0 0.0
2018-Feb-16 23:41N 27°49' W 097°29'0 0.0
2018-Feb-16 23:17N 27°49' W 097°29'0 0.0
2018-Feb-16 22:30N 27°49' W 097°29'0 0.0
2018-Feb-16 21:44N 27°49' W 097°29'0 0.0
2018-Feb-16 19:50N 27°49' W 097°29'0 0.0
2018-Feb-16 19:29N 27°49' W 097°29'0 0.0
2018-Feb-16 18:57N 27°49' W 097°29'0 0.0
2018-Feb-16 18:17N 27°49' W 097°29'0 0.0
2018-Feb-16 17:34N 27°49' W 097°29'0 0.1
2018-Feb-16 17:29N 27°49' W 097°29'1 1.3
2018-Feb-16 16:59N 27°50' W 097°30'0 0.0
2018-Feb-16 16:21N 27°50' W 097°30'0 0.0
2018-Feb-16 15:58N 27°50' W 097°30'0 0.4
2018-Feb-16 14:56N 27°49' W 097°29'2 3.5
2018-Feb-16 14:26N 27°49' W 097°27'1 3.1
2018-Feb-16 14:00N 27°49' W 097°26'1 1.7
2018-Feb-16 13:15N 27°49' W 097°25'0 0.0
2018-Feb-16 12:57N 27°49' W 097°25'0 0.0
2018-Feb-16 12:29N 27°49' W 097°25'0 0.0
2018-Feb-16 03:07N 27°49' W 097°25'0 0.0
2018-Feb-16 02:59N 27°49' W 097°25'0 0.0
2018-Feb-16 02:24N 27°49' W 097°25'0 0.0
2018-Feb-16 01:53N 27°49' W 097°25'0 0.0
2018-Feb-16 01:30N 27°49' W 097°25'0 0.0
2018-Feb-16 00:57N 27°49' W 097°25'0 0.0
2018-Feb-16 00:30N 27°49' W 097°25'0 0.0
2018-Feb-15 23:44N 27°49' W 097°25'0 0.0
2018-Feb-15 23:28N 27°49' W 097°25'0 0.0
2018-Feb-15 23:00N 27°49' W 097°25'4 0.2
2018-Feb-15 02:11N 27°49' W 097°29'0 0.0
2018-Feb-15 01:51N 27°49' W 097°29'0 0.0
2018-Feb-15 01:29N 27°49' W 097°29'0 0.0
2018-Feb-15 00:57N 27°49' W 097°29'0 0.0
2018-Feb-14 20:21N 27°49' W 097°29'0 0.0
2018-Feb-14 19:59N 27°49' W 097°29'1 0.8
2018-Feb-14 19:12N 27°50' W 097°30'0 0.0
2018-Feb-14 09:54N 27°50' W 097°30'0 0.0
2018-Feb-14 09:28N 27°50' W 097°30'0 0.0
2018-Feb-14 08:13N 27°50' W 097°30'0 0.0
2018-Feb-14 08:00N 27°50' W 097°30'0 0.0
2018-Feb-14 07:19N 27°50' W 097°30'0 0.0
2018-Feb-14 05:24N 27°50' W 097°30'0 0.0
2018-Feb-14 04:59N 27°50' W 097°30'0 0.0
2018-Feb-14 04:30N 27°50' W 097°30'0 0.0
2018-Feb-14 03:58N 27°50' W 097°30'0 0.0
2018-Feb-14 03:16N 27°50' W 097°30'0 0.0
2018-Feb-14 02:57N 27°50' W 097°30'0 0.0
2018-Feb-14 02:30N 27°50' W 097°30'0 0.0
2018-Feb-14 02:00N 27°50' W 097°30'0 0.0
2018-Feb-14 01:15N 27°50' W 097°30'0 0.0
2018-Feb-14 00:59N 27°50' W 097°30'0 0.0
2018-Feb-14 00:30N 27°50' W 097°30'0 0.0
2018-Feb-13 23:56N 27°50' W 097°30'0 0.0
2018-Feb-13 23:29N 27°50' W 097°30'0 0.0
2018-Feb-13 22:58N 27°50' W 097°30'0 0.0
2018-Feb-13 22:30N 27°50' W 097°30'0 0.0
2018-Feb-13 21:56N 27°50' W 097°30'0 0.0
2018-Feb-13 20:11N 27°50' W 097°30'0 0.0
2018-Feb-13 19:53N 27°50' W 097°30'0 0.0
2018-Feb-13 19:28N 27°50' W 097°30'0 0.0
2018-Feb-13 18:56N 27°50' W 097°30'0 0.0
2018-Feb-13 18:26N 27°50' W 097°30'0 0.0
2018-Feb-13 18:00N 27°50' W 097°30'0 0.0
2018-Feb-13 17:29N 27°50' W 097°30'0 0.0
2018-Feb-13 16:59N 27°50' W 097°30'0 0.0
2018-Feb-13 16:30N 27°50' W 097°30'0 0.0
2018-Feb-13 15:56N 27°50' W 097°30'0 0.0
2018-Feb-13 15:23N 27°50' W 097°30'0 0.0
2018-Feb-13 15:00N 27°50' W 097°30'0 0.0
2018-Feb-13 14:10N 27°50' W 097°30'0 2.0
2018-Feb-13 14:00N 27°50' W 097°29'4 0.2
2018-Feb-12 18:37N 27°49' W 097°25'0 0.7
2018-Feb-12 18:30N 27°49' W 097°25'20 0.4
2018-Feb-10 15:50N 27°53' W 097°03'0 0.0
2018-Feb-10 15:30N 27°53' W 097°03'0 0.0
2018-Feb-10 15:00N 27°53' W 097°03'0 0.0
2018-Feb-10 14:30N 27°53' W 097°03'  
2018-Feb-08 01:30N 29°41' W 094°10'2 4.8
2018-Feb-08 01:00N 29°43' W 094°08'3 5.8
2018-Feb-08 00:31N 29°45' W 094°05'3 5.9
2018-Feb-08 00:00N 29°46' W 094°02'3 5.8
2018-Feb-07 23:30N 29°48' W 093°60'2 4.4
2018-Feb-07 23:00N 29°49' W 093°58'1 2.3
2018-Feb-07 22:30N 29°51' W 093°58'0 0.9
2018-Feb-07 22:00N 29°51' W 093°58'0 0.1
2018-Feb-07 21:31N 29°51' W 093°58'  
Track history (hours):
 
Tides and Currents Weather Stations Pressure Air Temp Water Temp Dewpoint Dewpoint Depression Visibility Wind Speed Wind Dir Waves Ship Positions

Pedernales

Owner: Higman Barge Lines, Inc., Orange, TX. More information available from US FCC via Universal Licensing System and Coast Guard Vessel Documentation Center.

Last reported at 2018-Feb-17 17:22 UTC. Time now 2018-Feb-22 09:31 UTC.
Position N 27°49' W 097°29'.

Length 24 m; draft 3 m.

Type: Towing. MMSI: 367561410.

Date/timePositionNaut miles runAvg speedWind from/ knotsBaromVisibWave heightAir tempDewpointWater temp
2018-Feb-17 17:22N 27°49' W 097°29'0 0.0
2018-Feb-17 16:47N 27°49' W 097°29'0 0.0
2018-Feb-17 16:22N 27°49' W 097°29'1 1.1
2018-Feb-17 15:52N 27°49' W 097°28'2 2.1
2018-Feb-17 15:05N 27°49' W 097°26'1 7.4
2018-Feb-17 15:00N 27°49' W 097°27'2 3.1
2018-Feb-17 14:29N 27°49' W 097°29'0 0.0
2018-Feb-17 13:56N 27°49' W 097°29'0 0.0
2018-Feb-17 12:52N 27°49' W 097°29'0 0.0
2018-Feb-17 12:24N 27°49' W 097°29'0 0.0
2018-Feb-17 11:59N 27°49' W 097°29'0 0.0
2018-Feb-17 11:30N 27°49' W 097°29'1 0.1
2018-Feb-17 04:07N 27°49' W 097°29'0 0.0
2018-Feb-17 03:58N 27°49' W 097°29'0 0.0
2018-Feb-16 23:41N 27°49' W 097°29'0 0.0
2018-Feb-16 23:17N 27°49' W 097°29'0 0.0
2018-Feb-16 22:30N 27°49' W 097°29'0 0.0
2018-Feb-16 21:44N 27°49' W 097°29'0 0.0
2018-Feb-16 19:50N 27°49' W 097°29'0 0.0
2018-Feb-16 19:29N 27°49' W 097°29'0 0.0
2018-Feb-16 18:57N 27°49' W 097°29'0 0.0
2018-Feb-16 18:17N 27°49' W 097°29'0 0.0
2018-Feb-16 17:34N 27°49' W 097°29'0 0.1
2018-Feb-16 17:29N 27°49' W 097°29'1 1.3
2018-Feb-16 16:59N 27°50' W 097°30'0 0.0
2018-Feb-16 16:21N 27°50' W 097°30'0 0.0
2018-Feb-16 15:58N 27°50' W 097°30'0 0.4
2018-Feb-16 14:56N 27°49' W 097°29'2 3.5
2018-Feb-16 14:26N 27°49' W 097°27'1 3.1
2018-Feb-16 14:00N 27°49' W 097°26'1 1.7
2018-Feb-16 13:15N 27°49' W 097°25'0 0.0
2018-Feb-16 12:57N 27°49' W 097°25'0 0.0
2018-Feb-16 12:29N 27°49' W 097°25'0 0.0
2018-Feb-16 03:07N 27°49' W 097°25'0 0.0
2018-Feb-16 02:59N 27°49' W 097°25'0 0.0
2018-Feb-16 02:24N 27°49' W 097°25'0 0.0
2018-Feb-16 01:53N 27°49' W 097°25'0 0.0
2018-Feb-16 01:30N 27°49' W 097°25'0 0.0
2018-Feb-16 00:57N 27°49' W 097°25'0 0.0
2018-Feb-16 00:30N 27°49' W 097°25'0 0.0
2018-Feb-15 23:44N 27°49' W 097°25'0 0.0
2018-Feb-15 23:28N 27°49' W 097°25'0 0.0
2018-Feb-15 23:00N 27°49' W 097°25'4 0.2
2018-Feb-15 02:11N 27°49' W 097°29'0 0.0
2018-Feb-15 01:51N 27°49' W 097°29'0 0.0
2018-Feb-15 01:29N 27°49' W 097°29'0 0.0
2018-Feb-15 00:57N 27°49' W 097°29'0 0.0
2018-Feb-14 20:21N 27°49' W 097°29'0 0.0
2018-Feb-14 19:59N 27°49' W 097°29'1 0.8
2018-Feb-14 19:12N 27°50' W 097°30'0 0.0
2018-Feb-14 09:54N 27°50' W 097°30'0 0.0
2018-Feb-14 09:28N 27°50' W 097°30'0 0.0
2018-Feb-14 08:13N 27°50' W 097°30'0 0.0
2018-Feb-14 08:00N 27°50' W 097°30'0 0.0
2018-Feb-14 07:19N 27°50' W 097°30'0 0.0
2018-Feb-14 05:24N 27°50' W 097°30'0 0.0
2018-Feb-14 04:59N 27°50' W 097°30'0 0.0
2018-Feb-14 04:30N 27°50' W 097°30'0 0.0
2018-Feb-14 03:58N 27°50' W 097°30'0 0.0
2018-Feb-14 03:16N 27°50' W 097°30'0 0.0
2018-Feb-14 02:57N 27°50' W 097°30'0 0.0
2018-Feb-14 02:30N 27°50' W 097°30'0 0.0
2018-Feb-14 02:00N 27°50' W 097°30'0 0.0
2018-Feb-14 01:15N 27°50' W 097°30'0 0.0
2018-Feb-14 00:59N 27°50' W 097°30'0 0.0
2018-Feb-14 00:30N 27°50' W 097°30'0 0.0
2018-Feb-13 23:56N 27°50' W 097°30'0 0.0
2018-Feb-13 23:29N 27°50' W 097°30'0 0.0
2018-Feb-13 22:58N 27°50' W 097°30'0 0.0
2018-Feb-13 22:30N 27°50' W 097°30'0 0.0
2018-Feb-13 21:56N 27°50' W 097°30'0 0.0
2018-Feb-13 20:11N 27°50' W 097°30'0 0.0
2018-Feb-13 19:53N 27°50' W 097°30'0 0.0
2018-Feb-13 19:28N 27°50' W 097°30'0 0.0
2018-Feb-13 18:56N 27°50' W 097°30'0 0.0
2018-Feb-13 18:26N 27°50' W 097°30'0 0.0
2018-Feb-13 18:00N 27°50' W 097°30'0 0.0
2018-Feb-13 17:29N 27°50' W 097°30'0 0.0
2018-Feb-13 16:59N 27°50' W 097°30'0 0.0
2018-Feb-13 16:30N 27°50' W 097°30'0 0.0
2018-Feb-13 15:56N 27°50' W 097°30'0 0.0
2018-Feb-13 15:23N 27°50' W 097°30'0 0.0
2018-Feb-13 15:00N 27°50' W 097°30'0 0.0
2018-Feb-13 14:10N 27°50' W 097°30'0 2.0
2018-Feb-13 14:00N 27°50' W 097°29'4 0.2
2018-Feb-12 18:37N 27°49' W 097°25'0 0.7
2018-Feb-12 18:30N 27°49' W 097°25'20 0.4
2018-Feb-10 15:50N 27°53' W 097°03'0 0.0
2018-Feb-10 15:30N 27°53' W 097°03'0 0.0
2018-Feb-10 15:00N 27°53' W 097°03'0 0.0
2018-Feb-10 14:30N 27°53' W 097°03'  
2018-Feb-08 01:30N 29°41' W 094°10'2 4.8
2018-Feb-08 01:00N 29°43' W 094°08'3 5.8
2018-Feb-08 00:31N 29°45' W 094°05'3 5.9
2018-Feb-08 00:00N 29°46' W 094°02'3 5.8
2018-Feb-07 23:30N 29°48' W 093°60'2 4.4
2018-Feb-07 23:00N 29°49' W 093°58'1 2.3
2018-Feb-07 22:30N 29°51' W 093°58'0 0.9
2018-Feb-07 22:00N 29°51' W 093°58'0 0.1
2018-Feb-07 21:31N 29°51' W 093°58'  

Dump ship's entire track history